sensor_id;sensor_type;location;lat;lon;timestamp;P1;durP1;ratioP1;P2;durP2;ratioP2
40781;SDS011;26493;51.938;7.626;2024-02-15T00:01:06;16.33;;;14.57;;
40781;SDS011;26493;51.938;7.626;2024-02-15T00:03:32;15.48;;;13.73;;
40781;SDS011;26493;51.938;7.626;2024-02-15T00:05:59;15.85;;;14.15;;
40781;SDS011;26493;51.938;7.626;2024-02-15T00:08:25;18.90;;;17.00;;
40781;SDS011;26493;51.938;7.626;2024-02-15T00:10:52;18.42;;;16.35;;
40781;SDS011;26493;51.938;7.626;2024-02-15T00:13:18;15.70;;;13.15;;
40781;SDS011;26493;51.938;7.626;2024-02-15T00:15:44;15.32;;;13.63;;
40781;SDS011;26493;51.938;7.626;2024-02-15T00:18:13;16.50;;;14.80;;
40781;SDS011;26493;51.938;7.626;2024-02-15T00:20:39;16.98;;;15.23;;
40781;SDS011;26493;51.938;7.626;2024-02-15T00:23:05;19.58;;;17.58;;
40781;SDS011;26493;51.938;7.626;2024-02-15T00:25:31;16.67;;;13.98;;
40781;SDS011;26493;51.938;7.626;2024-02-15T00:27:57;16.10;;;14.40;;
40781;SDS011;26493;51.938;7.626;2024-02-15T00:30:27;15.80;;;14.10;;
40781;SDS011;26493;51.938;7.626;2024-02-15T00:32:53;15.80;;;14.10;;
40781;SDS011;26493;51.938;7.626;2024-02-15T00:35:19;15.43;;;13.70;;
40781;SDS011;26493;51.938;7.626;2024-02-15T00:37:45;15.88;;;14.18;;
40781;SDS011;26493;51.938;7.626;2024-02-15T00:40:11;16.42;;;14.50;;
40781;SDS011;26493;51.938;7.626;2024-02-15T00:42:37;16.20;;;14.50;;
40781;SDS011;26493;51.938;7.626;2024-02-15T00:45:04;15.73;;;14.02;;
40781;SDS011;26493;51.938;7.626;2024-02-15T00:47:30;19.83;;;17.92;;
40781;SDS011;26493;51.938;7.626;2024-02-15T00:49:57;17.95;;;14.80;;
40781;SDS011;26493;51.938;7.626;2024-02-15T00:52:23;15.88;;;14.18;;
40781;SDS011;26493;51.938;7.626;2024-02-15T00:54:50;20.05;;;18.08;;
40781;SDS011;26493;51.938;7.626;2024-02-15T00:57:16;15.75;;;14.05;;
40781;SDS011;26493;51.938;7.626;2024-02-15T00:59:42;15.73;;;14.02;;
40781;SDS011;26493;51.938;7.626;2024-02-15T01:02:08;15.88;;;14.18;;
40781;SDS011;26493;51.938;7.626;2024-02-15T01:04:34;15.85;;;14.15;;
40781;SDS011;26493;51.938;7.626;2024-02-15T01:07:00;19.40;;;17.52;;
40781;SDS011;26493;51.938;7.626;2024-02-15T01:09:26;20.17;;;17.23;;
40781;SDS011;26493;51.938;7.626;2024-02-15T01:11:52;20.00;;;18.10;;
40781;SDS011;26493;51.938;7.626;2024-02-15T01:14:18;16.30;;;14.60;;
40781;SDS011;26493;51.938;7.626;2024-02-15T01:16:44;16.85;;;15.05;;
40781;SDS011;26493;51.938;7.626;2024-02-15T01:19:11;15.68;;;13.98;;
40781;SDS011;26493;51.938;7.626;2024-02-15T01:21:37;16.90;;;15.20;;
40781;SDS011;26493;51.938;7.626;2024-02-15T01:24:03;16.02;;;14.32;;
40781;SDS011;26493;51.938;7.626;2024-02-15T01:26:31;15.93;;;14.23;;
40781;SDS011;26493;51.938;7.626;2024-02-15T01:28:57;15.77;;;14.07;;
40781;SDS011;26493;51.938;7.626;2024-02-15T01:31:23;17.90;;;16.00;;
40781;SDS011;26493;51.938;7.626;2024-02-15T01:33:49;21.73;;;19.45;;
40781;SDS011;26493;51.938;7.626;2024-02-15T01:36:16;17.88;;;15.85;;
40781;SDS011;26493;51.938;7.626;2024-02-15T01:38:42;15.60;;;13.90;;
40781;SDS011;26493;51.938;7.626;2024-02-15T01:41:08;17.98;;;16.17;;
40781;SDS011;26493;51.938;7.626;2024-02-15T01:43:37;17.48;;;15.77;;
40781;SDS011;26493;51.938;7.626;2024-02-15T01:46:08;16.30;;;14.60;;
40781;SDS011;26493;51.938;7.626;2024-02-15T01:48:38;18.40;;;16.58;;
40781;SDS011;26493;51.938;7.626;2024-02-15T01:51:05;15.95;;;14.25;;
40781;SDS011;26493;51.938;7.626;2024-02-15T01:53:31;16.40;;;14.70;;
40781;SDS011;26493;51.938;7.626;2024-02-15T01:55:57;18.40;;;16.50;;
40781;SDS011;26493;51.938;7.626;2024-02-15T01:58:25;16.45;;;14.75;;
40781;SDS011;26493;51.938;7.626;2024-02-15T02:00:51;16.08;;;14.38;;
40781;SDS011;26493;51.938;7.626;2024-02-15T02:03:17;16.90;;;15.20;;
40781;SDS011;26493;51.938;7.626;2024-02-15T02:05:43;16.25;;;14.55;;
40781;SDS011;26493;51.938;7.626;2024-02-15T02:08:09;18.13;;;16.33;;
40781;SDS011;26493;51.938;7.626;2024-02-15T02:10:36;17.70;;;15.90;;
40781;SDS011;26493;51.938;7.626;2024-02-15T02:13:02;16.30;;;14.60;;
40781;SDS011;26493;51.938;7.626;2024-02-15T02:15:28;17.38;;;15.57;;
40781;SDS011;26493;51.938;7.626;2024-02-15T02:17:56;15.95;;;14.25;;
40781;SDS011;26493;51.938;7.626;2024-02-15T02:20:24;16.90;;;15.10;;
40781;SDS011;26493;51.938;7.626;2024-02-15T02:22:50;15.55;;;13.85;;
40781;SDS011;26493;51.938;7.626;2024-02-15T02:25:16;15.90;;;14.20;;
40781;SDS011;26493;51.938;7.626;2024-02-15T02:27:43;16.10;;;14.40;;
40781;SDS011;26493;51.938;7.626;2024-02-15T02:30:15;16.15;;;14.45;;
40781;SDS011;26493;51.938;7.626;2024-02-15T02:32:44;18.58;;;16.77;;
40781;SDS011;26493;51.938;7.626;2024-02-15T02:35:11;17.67;;;15.98;;
40781;SDS011;26493;51.938;7.626;2024-02-15T02:37:40;15.60;;;13.88;;
40781;SDS011;26493;51.938;7.626;2024-02-15T02:40:06;15.20;;;13.43;;
40781;SDS011;26493;51.938;7.626;2024-02-15T02:42:34;18.20;;;16.40;;
40781;SDS011;26493;51.938;7.626;2024-02-15T02:45:00;15.30;;;13.50;;
40781;SDS011;26493;51.938;7.626;2024-02-15T02:47:26;16.30;;;14.60;;
40781;SDS011;26493;51.938;7.626;2024-02-15T02:49:52;16.48;;;14.75;;
40781;SDS011;26493;51.938;7.626;2024-02-15T02:52:18;17.83;;;14.40;;
40781;SDS011;26493;51.938;7.626;2024-02-15T02:54:44;15.25;;;13.40;;
40781;SDS011;26493;51.938;7.626;2024-02-15T02:57:10;16.67;;;14.23;;
40781;SDS011;26493;51.938;7.626;2024-02-15T02:59:36;15.20;;;13.35;;
40781;SDS011;26493;51.938;7.626;2024-02-15T03:02:04;15.20;;;13.30;;
40781;SDS011;26493;51.938;7.626;2024-02-15T03:04:33;15.20;;;13.25;;
40781;SDS011;26493;51.938;7.626;2024-02-15T03:06:59;15.23;;;13.50;;
40781;SDS011;26493;51.938;7.626;2024-02-15T03:09:25;17.15;;;15.45;;
40781;SDS011;26493;51.938;7.626;2024-02-15T03:11:54;15.20;;;13.32;;
40781;SDS011;26493;51.938;7.626;2024-02-15T03:14:21;15.80;;;14.10;;
40781;SDS011;26493;51.938;7.626;2024-02-15T03:16:47;16.63;;;14.93;;
40781;SDS011;26493;51.938;7.626;2024-02-15T03:19:13;15.40;;;13.68;;
40781;SDS011;26493;51.938;7.626;2024-02-15T03:21:39;15.30;;;13.60;;
40781;SDS011;26493;51.938;7.626;2024-02-15T03:24:06;15.30;;;13.55;;
40781;SDS011;26493;51.938;7.626;2024-02-15T03:26:32;15.30;;;13.60;;
40781;SDS011;26493;51.938;7.626;2024-02-15T03:29:01;15.45;;;13.75;;
40781;SDS011;26493;51.938;7.626;2024-02-15T03:31:27;15.55;;;13.85;;
40781;SDS011;26493;51.938;7.626;2024-02-15T03:33:53;15.80;;;14.10;;
40781;SDS011;26493;51.938;7.626;2024-02-15T03:36:19;16.27;;;14.57;;
40781;SDS011;26493;51.938;7.626;2024-02-15T03:38:46;16.95;;;15.20;;
40781;SDS011;26493;51.938;7.626;2024-02-15T03:41:13;17.30;;;14.80;;
40781;SDS011;26493;51.938;7.626;2024-02-15T03:43:39;15.40;;;13.70;;
40781;SDS011;26493;51.938;7.626;2024-02-15T03:46:05;22.77;;;17.27;;
40781;SDS011;26493;51.938;7.626;2024-02-15T03:48:33;15.30;;;13.48;;
40781;SDS011;26493;51.938;7.626;2024-02-15T03:51:00;15.90;;;14.20;;
40781;SDS011;26493;51.938;7.626;2024-02-15T03:53:26;15.95;;;13.82;;
40781;SDS011;26493;51.938;7.626;2024-02-15T03:55:55;16.23;;;14.45;;
40781;SDS011;26493;51.938;7.626;2024-02-15T03:58:21;15.35;;;13.70;;
40781;SDS011;26493;51.938;7.626;2024-02-15T04:00:47;15.30;;;13.50;;
40781;SDS011;26493;51.938;7.626;2024-02-15T04:03:13;16.25;;;14.50;;
40781;SDS011;26493;51.938;7.626;2024-02-15T04:05:39;15.40;;;13.60;;
40781;SDS011;26493;51.938;7.626;2024-02-15T04:08:05;15.40;;;13.65;;
40781;SDS011;26493;51.938;7.626;2024-02-15T04:10:31;16.52;;;14.73;;
40781;SDS011;26493;51.938;7.626;2024-02-15T04:12:57;15.50;;;13.80;;
40781;SDS011;26493;51.938;7.626;2024-02-15T04:15:23;15.70;;;14.00;;
40781;SDS011;26493;51.938;7.626;2024-02-15T04:17:49;15.60;;;13.65;;
40781;SDS011;26493;51.938;7.626;2024-02-15T04:20:21;16.83;;;14.30;;
40781;SDS011;26493;51.938;7.626;2024-02-15T04:22:47;15.63;;;13.88;;
40781;SDS011;26493;51.938;7.626;2024-02-15T04:25:15;15.38;;;13.55;;
40781;SDS011;26493;51.938;7.626;2024-02-15T04:27:43;15.30;;;13.57;;
40781;SDS011;26493;51.938;7.626;2024-02-15T04:30:10;15.48;;;13.68;;
40781;SDS011;26493;51.938;7.626;2024-02-15T04:32:36;16.38;;;14.68;;
40781;SDS011;26493;51.938;7.626;2024-02-15T04:35:02;17.63;;;15.85;;
40781;SDS011;26493;51.938;7.626;2024-02-15T04:37:30;15.30;;;13.20;;
40781;SDS011;26493;51.938;7.626;2024-02-15T04:39:57;15.10;;;12.85;;
40781;SDS011;26493;51.938;7.626;2024-02-15T04:42:23;15.00;;;12.73;;
40781;SDS011;26493;51.938;7.626;2024-02-15T04:47:19;14.90;;;12.50;;
40781;SDS011;26493;51.938;7.626;2024-02-15T04:49:45;14.80;;;12.35;;
40781;SDS011;26493;51.938;7.626;2024-02-15T04:52:11;15.20;;;13.15;;
40781;SDS011;26493;51.938;7.626;2024-02-15T04:54:37;14.93;;;12.65;;
40781;SDS011;26493;51.938;7.626;2024-02-15T04:57:03;14.98;;;12.63;;
40781;SDS011;26493;51.938;7.626;2024-02-15T04:59:31;15.20;;;13.25;;
40781;SDS011;26493;51.938;7.626;2024-02-15T05:01:57;15.10;;;13.02;;
40781;SDS011;26493;51.938;7.626;2024-02-15T05:04:23;15.07;;;12.93;;
40781;SDS011;26493;51.938;7.626;2024-02-15T05:06:50;15.20;;;13.27;;
40781;SDS011;26493;51.938;7.626;2024-02-15T05:09:17;15.30;;;13.40;;
40781;SDS011;26493;51.938;7.626;2024-02-15T05:11:43;15.18;;;13.00;;
40781;SDS011;26493;51.938;7.626;2024-02-15T05:16:44;15.02;;;12.70;;
40781;SDS011;26493;51.938;7.626;2024-02-15T05:21:38;15.10;;;12.80;;
40781;SDS011;26493;51.938;7.626;2024-02-15T05:24:05;14.90;;;12.32;;
40781;SDS011;26493;51.938;7.626;2024-02-15T05:26:31;15.20;;;12.90;;
40781;SDS011;26493;51.938;7.626;2024-02-15T05:28:57;14.80;;;12.10;;
40781;SDS011;26493;51.938;7.626;2024-02-15T05:31:24;15.10;;;12.70;;
40781;SDS011;26493;51.938;7.626;2024-02-15T05:33:51;14.98;;;12.50;;
40781;SDS011;26493;51.938;7.626;2024-02-15T05:36:18;14.90;;;12.48;;
40781;SDS011;26493;51.938;7.626;2024-02-15T05:38:45;15.10;;;12.67;;
40781;SDS011;26493;51.938;7.626;2024-02-15T05:41:11;15.07;;;12.60;;
40781;SDS011;26493;51.938;7.626;2024-02-15T05:43:38;15.10;;;12.70;;
40781;SDS011;26493;51.938;7.626;2024-02-15T05:46:06;15.00;;;12.60;;
40781;SDS011;26493;51.938;7.626;2024-02-15T05:48:33;14.98;;;12.43;;
40781;SDS011;26493;51.938;7.626;2024-02-15T05:51:02;15.00;;;12.57;;
40781;SDS011;26493;51.938;7.626;2024-02-15T05:53:29;15.00;;;12.57;;
40781;SDS011;26493;51.938;7.626;2024-02-15T05:55:55;15.00;;;12.65;;
40781;SDS011;26493;51.938;7.626;2024-02-15T05:58:23;15.10;;;12.83;;
40781;SDS011;26493;51.938;7.626;2024-02-15T06:00:49;15.00;;;12.50;;
40781;SDS011;26493;51.938;7.626;2024-02-15T06:03:15;14.90;;;12.27;;
40781;SDS011;26493;51.938;7.626;2024-02-15T06:05:42;14.80;;;12.25;;
40781;SDS011;26493;51.938;7.626;2024-02-15T06:08:09;14.80;;;12.25;;
40781;SDS011;26493;51.938;7.626;2024-02-15T06:13:03;14.70;;;11.80;;
40781;SDS011;26493;51.938;7.626;2024-02-15T06:15:29;14.70;;;11.85;;
40781;SDS011;26493;51.938;7.626;2024-02-15T06:17:55;14.68;;;11.68;;
40781;SDS011;26493;51.938;7.626;2024-02-15T06:20:22;14.50;;;11.13;;
40781;SDS011;26493;51.938;7.626;2024-02-15T06:22:50;14.50;;;11.10;;
40781;SDS011;26493;51.938;7.626;2024-02-15T06:25:20;15.35;;;11.60;;
40781;SDS011;26493;51.938;7.626;2024-02-15T06:27:47;14.50;;;11.10;;
40781;SDS011;26493;51.938;7.626;2024-02-15T06:30:14;14.40;;;10.90;;
40781;SDS011;26493;51.938;7.626;2024-02-15T06:32:58;14.50;;;11.10;;
40781;SDS011;26493;51.938;7.626;2024-02-15T06:35:43;14.40;;;11.10;;
40781;SDS011;26493;51.938;7.626;2024-02-15T06:38:28;14.50;;;11.15;;
40781;SDS011;26493;51.938;7.626;2024-02-15T06:41:13;14.60;;;11.45;;
40781;SDS011;26493;51.938;7.626;2024-02-15T06:43:39;14.70;;;11.80;;
40781;SDS011;26493;51.938;7.626;2024-02-15T06:46:08;14.98;;;12.30;;
40781;SDS011;26493;51.938;7.626;2024-02-15T06:48:35;15.40;;;13.38;;
40781;SDS011;26493;51.938;7.626;2024-02-15T06:51:02;16.77;;;15.07;;
40781;SDS011;26493;51.938;7.626;2024-02-15T06:53:29;17.60;;;15.80;;
40781;SDS011;26493;51.938;7.626;2024-02-15T06:55:55;18.05;;;16.25;;
40781;SDS011;26493;51.938;7.626;2024-02-15T06:58:21;20.80;;;18.90;;
40781;SDS011;26493;51.938;7.626;2024-02-15T07:00:48;23.80;;;21.80;;
40781;SDS011;26493;51.938;7.626;2024-02-15T07:03:17;25.38;;;23.27;;
40781;SDS011;26493;51.938;7.626;2024-02-15T07:05:43;31.67;;;29.17;;
40781;SDS011;26493;51.938;7.626;2024-02-15T07:08:09;32.67;;;30.08;;
40781;SDS011;26493;51.938;7.626;2024-02-15T07:13:04;33.88;;;31.27;;
40781;SDS011;26493;51.938;7.626;2024-02-15T07:15:31;32.95;;;30.35;;
40781;SDS011;26493;51.938;7.626;2024-02-15T07:17:58;33.20;;;30.60;;
40781;SDS011;26493;51.938;7.626;2024-02-15T07:20:24;34.95;;;32.15;;
40781;SDS011;26493;51.938;7.626;2024-02-15T07:22:51;34.42;;;31.73;;
40781;SDS011;26493;51.938;7.626;2024-02-15T07:25:18;32.58;;;29.98;;
40781;SDS011;26493;51.938;7.626;2024-02-15T07:27:44;34.92;;;31.95;;
40781;SDS011;26493;51.938;7.626;2024-02-15T07:30:10;35.30;;;32.60;;
40781;SDS011;26493;51.938;7.626;2024-02-15T07:32:36;36.72;;;33.83;;
40781;SDS011;26493;51.938;7.626;2024-02-15T07:35:02;36.10;;;33.30;;
40781;SDS011;26493;51.938;7.626;2024-02-15T07:37:32;33.63;;;30.92;;
40781;SDS011;26493;51.938;7.626;2024-02-15T07:39:58;33.30;;;30.60;;
40781;SDS011;26493;51.938;7.626;2024-02-15T07:42:25;32.88;;;30.27;;
40781;SDS011;26493;51.938;7.626;2024-02-15T07:44:51;34.10;;;31.45;;
40781;SDS011;26493;51.938;7.626;2024-02-15T07:47:18;34.67;;;32.05;;
40781;SDS011;26493;51.938;7.626;2024-02-15T07:49:46;31.85;;;29.35;;
40781;SDS011;26493;51.938;7.626;2024-02-15T07:52:12;31.05;;;28.55;;
40781;SDS011;26493;51.938;7.626;2024-02-15T07:54:38;29.88;;;27.48;;
40781;SDS011;26493;51.938;7.626;2024-02-15T07:57:04;30.73;;;28.10;;
40781;SDS011;26493;51.938;7.626;2024-02-15T07:59:30;29.73;;;27.33;;
40781;SDS011;26493;51.938;7.626;2024-02-15T08:01:56;29.27;;;26.88;;
40781;SDS011;26493;51.938;7.626;2024-02-15T08:04:23;28.55;;;26.25;;
40781;SDS011;26493;51.938;7.626;2024-02-15T08:06:49;28.52;;;26.23;;
40781;SDS011;26493;51.938;7.626;2024-02-15T08:09:18;27.88;;;25.58;;
40781;SDS011;26493;51.938;7.626;2024-02-15T08:11:47;27.40;;;25.20;;
40781;SDS011;26493;51.938;7.626;2024-02-15T08:14:13;29.33;;;27.02;;
40781;SDS011;26493;51.938;7.626;2024-02-15T08:16:39;30.92;;;28.42;;
40781;SDS011;26493;51.938;7.626;2024-02-15T08:19:05;29.05;;;26.75;;
40781;SDS011;26493;51.938;7.626;2024-02-15T08:21:32;29.90;;;27.50;;
40781;SDS011;26493;51.938;7.626;2024-02-15T08:23:59;28.98;;;26.67;;
40781;SDS011;26493;51.938;7.626;2024-02-15T08:28:58;30.25;;;27.85;;
40781;SDS011;26493;51.938;7.626;2024-02-15T08:31:24;29.48;;;27.15;;
40781;SDS011;26493;51.938;7.626;2024-02-15T08:33:50;29.63;;;27.23;;
40781;SDS011;26493;51.938;7.626;2024-02-15T08:36:16;30.95;;;28.55;;
40781;SDS011;26493;51.938;7.626;2024-02-15T08:38:42;30.98;;;28.55;;
40781;SDS011;26493;51.938;7.626;2024-02-15T08:41:08;31.15;;;28.67;;
40781;SDS011;26493;51.938;7.626;2024-02-15T08:43:36;30.77;;;28.35;;
40781;SDS011;26493;51.938;7.626;2024-02-15T08:48:31;30.80;;;28.30;;
40781;SDS011;26493;51.938;7.626;2024-02-15T08:50:58;30.70;;;28.30;;
40781;SDS011;26493;51.938;7.626;2024-02-15T08:53:24;30.67;;;28.27;;
40781;SDS011;26493;51.938;7.626;2024-02-15T08:55:51;31.67;;;29.17;;
40781;SDS011;26493;51.938;7.626;2024-02-15T08:58:18;31.05;;;28.65;;
40781;SDS011;26493;51.938;7.626;2024-02-15T09:00:44;30.35;;;27.95;;
40781;SDS011;26493;51.938;7.626;2024-02-15T09:03:10;29.52;;;27.23;;
40781;SDS011;26493;51.938;7.626;2024-02-15T09:05:38;29.20;;;26.90;;
40781;SDS011;26493;51.938;7.626;2024-02-15T09:08:05;29.50;;;27.13;;
40781;SDS011;26493;51.938;7.626;2024-02-15T09:10:31;31.25;;;28.75;;
40781;SDS011;26493;51.938;7.626;2024-02-15T09:12:57;30.35;;;27.95;;
40781;SDS011;26493;51.938;7.626;2024-02-15T09:15:23;30.20;;;27.80;;
40781;SDS011;26493;51.938;7.626;2024-02-15T09:17:50;29.67;;;27.27;;
40781;SDS011;26493;51.938;7.626;2024-02-15T09:20:16;28.90;;;26.60;;
40781;SDS011;26493;51.938;7.626;2024-02-15T09:22:52;29.90;;;27.50;;
40781;SDS011;26493;51.938;7.626;2024-02-15T09:25:19;29.98;;;27.58;;
40781;SDS011;26493;51.938;7.626;2024-02-15T09:27:48;30.00;;;27.60;;
40781;SDS011;26493;51.938;7.626;2024-02-15T09:30:14;34.50;;;31.80;;
40781;SDS011;26493;51.938;7.626;2024-02-15T09:32:41;30.48;;;28.08;;
40781;SDS011;26493;51.938;7.626;2024-02-15T09:35:07;31.02;;;28.52;;
40781;SDS011;26493;51.938;7.626;2024-02-15T09:37:37;29.85;;;27.45;;
40781;SDS011;26493;51.938;7.626;2024-02-15T09:40:13;30.45;;;28.05;;
40781;SDS011;26493;51.938;7.626;2024-02-15T09:42:41;29.80;;;27.40;;
40781;SDS011;26493;51.938;7.626;2024-02-15T09:45:09;28.80;;;26.50;;
40781;SDS011;26493;51.938;7.626;2024-02-15T09:47:36;29.88;;;27.48;;
40781;SDS011;26493;51.938;7.626;2024-02-15T09:50:12;29.35;;;26.95;;
40781;SDS011;26493;51.938;7.626;2024-02-15T09:52:49;29.65;;;27.25;;
40781;SDS011;26493;51.938;7.626;2024-02-15T09:55:16;30.05;;;27.65;;
40781;SDS011;26493;51.938;7.626;2024-02-15T09:57:42;29.73;;;27.33;;
40781;SDS011;26493;51.938;7.626;2024-02-15T10:00:09;29.98;;;27.58;;
40781;SDS011;26493;51.938;7.626;2024-02-15T10:02:42;28.40;;;26.10;;
40781;SDS011;26493;51.938;7.626;2024-02-15T10:05:11;27.88;;;25.58;;
40781;SDS011;26493;51.938;7.626;2024-02-15T10:07:41;27.00;;;24.80;;
40781;SDS011;26493;51.938;7.626;2024-02-15T10:10:16;28.25;;;25.95;;
40781;SDS011;26493;51.938;7.626;2024-02-15T10:12:42;27.75;;;25.45;;
40781;SDS011;26493;51.938;7.626;2024-02-15T10:15:08;27.45;;;25.20;;
40781;SDS011;26493;51.938;7.626;2024-02-15T10:17:35;27.05;;;24.85;;
40781;SDS011;26493;51.938;7.626;2024-02-15T10:20:05;26.92;;;24.73;;
40781;SDS011;26493;51.938;7.626;2024-02-15T10:22:32;27.08;;;24.88;;
40781;SDS011;26493;51.938;7.626;2024-02-15T10:25:11;26.45;;;24.25;;
40781;SDS011;26493;51.938;7.626;2024-02-15T10:27:38;25.48;;;23.38;;
40781;SDS011;26493;51.938;7.626;2024-02-15T10:32:43;26.63;;;24.42;;
40781;SDS011;26493;51.938;7.626;2024-02-15T10:35:10;26.75;;;24.55;;
40781;SDS011;26493;51.938;7.626;2024-02-15T10:37:40;25.73;;;23.63;;
40781;SDS011;26493;51.938;7.626;2024-02-15T10:40:07;26.20;;;24.10;;
40781;SDS011;26493;51.938;7.626;2024-02-15T10:42:38;26.52;;;24.33;;
40781;SDS011;26493;51.938;7.626;2024-02-15T10:45:07;27.40;;;25.20;;
40781;SDS011;26493;51.938;7.626;2024-02-15T10:47:37;27.27;;;25.08;;
40781;SDS011;26493;51.938;7.626;2024-02-15T10:50:06;26.73;;;24.52;;
40781;SDS011;26493;51.938;7.626;2024-02-15T10:52:32;26.90;;;24.70;;
40781;SDS011;26493;51.938;7.626;2024-02-15T10:55:04;27.20;;;25.00;;
40781;SDS011;26493;51.938;7.626;2024-02-15T10:57:34;27.85;;;25.65;;
40781;SDS011;26493;51.938;7.626;2024-02-15T11:00:04;27.90;;;25.70;;
40781;SDS011;26493;51.938;7.626;2024-02-15T11:02:47;26.92;;;24.73;;
40781;SDS011;26493;51.938;7.626;2024-02-15T11:05:16;25.80;;;23.70;;
40781;SDS011;26493;51.938;7.626;2024-02-15T11:07:46;25.75;;;23.65;;
40781;SDS011;26493;51.938;7.626;2024-02-15T11:10:12;25.73;;;23.63;;
40781;SDS011;26493;51.938;7.626;2024-02-15T11:12:42;25.27;;;23.17;;
40781;SDS011;26493;51.938;7.626;2024-02-15T11:15:11;26.27;;;24.17;;
40781;SDS011;26493;51.938;7.626;2024-02-15T11:20:05;27.40;;;25.20;;
40781;SDS011;26493;51.938;7.626;2024-02-15T11:22:36;26.65;;;24.50;;
40781;SDS011;26493;51.938;7.626;2024-02-15T11:25:05;27.10;;;24.90;;
40781;SDS011;26493;51.938;7.626;2024-02-15T11:27:36;26.95;;;24.75;;
40781;SDS011;26493;51.938;7.626;2024-02-15T11:30:04;26.23;;;24.13;;
40781;SDS011;26493;51.938;7.626;2024-02-15T11:35:18;26.13;;;24.02;;
40781;SDS011;26493;51.938;7.626;2024-02-15T11:41:03;26.30;;;24.17;;
40781;SDS011;26493;51.938;7.626;2024-02-15T11:43:10;26.75;;;24.55;;
40781;SDS011;26493;51.938;7.626;2024-02-15T11:45:58;26.60;;;24.40;;
40781;SDS011;26493;51.938;7.626;2024-02-15T11:48:24;26.05;;;23.95;;
40781;SDS011;26493;51.938;7.626;2024-02-15T11:50:50;25.92;;;23.80;;
40781;SDS011;26493;51.938;7.626;2024-02-15T11:53:16;25.55;;;23.45;;
40781;SDS011;26493;51.938;7.626;2024-02-15T11:55:43;26.05;;;23.95;;
40781;SDS011;26493;51.938;7.626;2024-02-15T11:58:10;26.15;;;24.05;;
40781;SDS011;26493;51.938;7.626;2024-02-15T12:00:36;26.95;;;24.75;;
40781;SDS011;26493;51.938;7.626;2024-02-15T12:03:21;28.10;;;25.80;;
40781;SDS011;26493;51.938;7.626;2024-02-15T12:06:06;28.15;;;25.85;;
40781;SDS011;26493;51.938;7.626;2024-02-15T12:08:52;27.73;;;25.42;;
40781;SDS011;26493;51.938;7.626;2024-02-15T12:11:37;27.65;;;25.38;;
40781;SDS011;26493;51.938;7.626;2024-02-15T12:14:22;27.65;;;25.35;;
40781;SDS011;26493;51.938;7.626;2024-02-15T12:17:08;27.00;;;24.80;;
40781;SDS011;26493;51.938;7.626;2024-02-15T12:19:53;27.42;;;25.13;;
40781;SDS011;26493;51.938;7.626;2024-02-15T12:22:28;27.30;;;25.00;;
40781;SDS011;26493;51.938;7.626;2024-02-15T12:24:59;27.08;;;24.88;;
40781;SDS011;26493;51.938;7.626;2024-02-15T12:27:25;26.92;;;24.73;;
40781;SDS011;26493;51.938;7.626;2024-02-15T12:29:58;26.88;;;24.67;;
40781;SDS011;26493;51.938;7.626;2024-02-15T12:32:26;26.83;;;24.63;;
40781;SDS011;26493;51.938;7.626;2024-02-15T12:34:53;27.15;;;24.95;;
40781;SDS011;26493;51.938;7.626;2024-02-15T12:37:22;27.52;;;25.23;;
40781;SDS011;26493;51.938;7.626;2024-02-15T12:39:48;27.30;;;25.10;;
40781;SDS011;26493;51.938;7.626;2024-02-15T12:42:15;27.15;;;24.95;;
40781;SDS011;26493;51.938;7.626;2024-02-15T12:44:46;28.15;;;25.85;;
40781;SDS011;26493;51.938;7.626;2024-02-15T12:47:45;28.05;;;25.75;;
40781;SDS011;26493;51.938;7.626;2024-02-15T12:50:16;28.77;;;26.48;;
40781;SDS011;26493;51.938;7.626;2024-02-15T12:52:44;29.13;;;26.83;;
40781;SDS011;26493;51.938;7.626;2024-02-15T12:55:13;29.00;;;26.70;;
40781;SDS011;26493;51.938;7.626;2024-02-15T12:57:40;29.25;;;26.95;;
40781;SDS011;26493;51.938;7.626;2024-02-15T13:00:09;28.33;;;26.13;;
40781;SDS011;26493;51.938;7.626;2024-02-15T13:02:57;27.95;;;25.75;;
40781;SDS011;26493;51.938;7.626;2024-02-15T13:05:26;27.80;;;25.60;;
40781;SDS011;26493;51.938;7.626;2024-02-15T13:07:53;27.90;;;25.70;;
40781;SDS011;26493;51.938;7.626;2024-02-15T13:10:23;27.75;;;25.50;;
40781;SDS011;26493;51.938;7.626;2024-02-15T13:12:51;26.85;;;24.75;;
40781;SDS011;26493;51.938;7.626;2024-02-15T13:15:17;26.92;;;24.83;;
40781;SDS011;26493;51.938;7.626;2024-02-15T13:17:47;25.88;;;23.77;;
40781;SDS011;26493;51.938;7.626;2024-02-15T13:20:16;25.67;;;23.58;;
40781;SDS011;26493;51.938;7.626;2024-02-15T13:22:45;24.58;;;22.58;;
40781;SDS011;26493;51.938;7.626;2024-02-15T13:25:12;21.58;;;19.67;;
40781;SDS011;26493;51.938;7.626;2024-02-15T13:30:08;17.08;;;15.38;;
40781;SDS011;26493;51.938;7.626;2024-02-15T13:32:37;17.08;;;15.38;;
40781;SDS011;26493;51.938;7.626;2024-02-15T13:35:10;16.80;;;15.10;;
40781;SDS011;26493;51.938;7.626;2024-02-15T13:37:42;15.98;;;14.27;;
40781;SDS011;26493;51.938;7.626;2024-02-15T13:40:09;15.50;;;13.80;;
40781;SDS011;26493;51.938;7.626;2024-02-15T13:42:40;15.32;;;13.63;;
40781;SDS011;26493;51.938;7.626;2024-02-15T13:45:07;15.20;;;13.25;;
40781;SDS011;26493;51.938;7.626;2024-02-15T13:47:34;14.93;;;12.48;;
40781;SDS011;26493;51.938;7.626;2024-02-15T13:50:00;15.00;;;12.70;;
40781;SDS011;26493;51.938;7.626;2024-02-15T13:52:28;15.00;;;12.50;;
40781;SDS011;26493;51.938;7.626;2024-02-15T13:54:54;14.73;;;12.07;;
40781;SDS011;26493;51.938;7.626;2024-02-15T13:57:20;14.70;;;11.90;;
40781;SDS011;26493;51.938;7.626;2024-02-15T13:59:46;14.68;;;11.80;;
40781;SDS011;26493;51.938;7.626;2024-02-15T14:02:12;14.60;;;11.77;;
40781;SDS011;26493;51.938;7.626;2024-02-15T14:04:39;14.60;;;11.30;;
40781;SDS011;26493;51.938;7.626;2024-02-15T14:07:05;14.52;;;11.43;;
40781;SDS011;26493;51.938;7.626;2024-02-15T14:09:32;14.40;;;11.00;;
40781;SDS011;26493;51.938;7.626;2024-02-15T14:11:59;14.35;;;11.00;;
40781;SDS011;26493;51.938;7.626;2024-02-15T14:14:27;14.32;;;10.90;;
40781;SDS011;26493;51.938;7.626;2024-02-15T14:16:53;14.45;;;11.20;;
40781;SDS011;26493;51.938;7.626;2024-02-15T14:19:19;14.55;;;11.40;;
40781;SDS011;26493;51.938;7.626;2024-02-15T14:21:46;14.57;;;11.40;;
40781;SDS011;26493;51.938;7.626;2024-02-15T14:24:12;14.30;;;10.80;;
40781;SDS011;26493;51.938;7.626;2024-02-15T14:26:38;14.27;;;10.75;;
40781;SDS011;26493;51.938;7.626;2024-02-15T14:29:04;14.30;;;10.77;;
40781;SDS011;26493;51.938;7.626;2024-02-15T14:31:30;14.25;;;10.77;;
40781;SDS011;26493;51.938;7.626;2024-02-15T14:34:15;14.18;;;10.30;;
40781;SDS011;26493;51.938;7.626;2024-02-15T14:36:42;14.00;;;10.07;;
40781;SDS011;26493;51.938;7.626;2024-02-15T14:39:12;14.15;;;10.30;;
40781;SDS011;26493;51.938;7.626;2024-02-15T14:41:39;14.07;;;10.20;;
40781;SDS011;26493;51.938;7.626;2024-02-15T14:44:05;14.18;;;10.40;;
40781;SDS011;26493;51.938;7.626;2024-02-15T14:46:31;14.05;;;10.15;;
40781;SDS011;26493;51.938;7.626;2024-02-15T14:49:00;14.00;;;9.93;;
40781;SDS011;26493;51.938;7.626;2024-02-15T14:51:27;14.10;;;10.13;;
40781;SDS011;26493;51.938;7.626;2024-02-15T14:53:53;14.10;;;10.30;;
40781;SDS011;26493;51.938;7.626;2024-02-15T14:56:19;14.02;;;10.05;;